Decoded Metar for KSLE (SALEM in OR, USA) (IATA:SLE) | Meteo·Mobile Aviation Weather
aviador You're here:

KSLE Decoded Metar

SALEM in OR, USA
Report Time2018-09-20 08:56:00
UTC Time2018-09-20 09:05:42
Flight Rules vfr VFR
WindCalm
Visibility9999 m
Phenomena:N/A
Clouds:Few 075 Hf
Expected CloudBase > 1,600 ft AGL from Temp-Dew spread
CeilingNone
Temp13°C (ISA -2)
Dew Point09°C (77% RH)
AAT12.8°C
QNH1020 hPa
Density Alt-79 ft
Elevation194 ft
Report Wrong Elevation
Raw Report
KSLE 200856Z AUTO 00000KT 10SM FEW075 13/09 A3012 RMK AO2 SLP198
T01280089 50001=

Extra information for KSLE:More info

Metar Taf Metar & Taf Last 4 Metars F.Rules Stats Wind Profile Meteogram Temp Stats Airport Information Weather charts Add Link Nearby VenuesMetar ALERT Operation Metar Decoded Social comments

AIRNAV info for KSLE